createdAt,value
2022-10-09T00:01:16.948Z,8.21
2022-10-09T00:03:47.272Z,8.13
2022-10-09T00:06:18.247Z,8.10
2022-10-09T00:08:47.618Z,8.00
2022-10-09T00:11:17.807Z,7.97
2022-10-09T00:13:45.685Z,7.97
2022-10-09T00:16:15.464Z,7.98
2022-10-09T00:18:43.354Z,7.93
2022-10-09T00:21:19.269Z,7.90
2022-10-09T00:23:49.014Z,7.90
2022-10-09T00:26:16.661Z,7.85
2022-10-09T00:28:44.546Z,7.91
2022-10-09T00:31:12.865Z,7.86
2022-10-09T00:33:41.112Z,7.83
2022-10-09T00:36:10.610Z,7.79
2022-10-09T00:38:38.565Z,7.86
2022-10-09T00:41:08.186Z,7.77
2022-10-09T00:43:42.080Z,7.74
2022-10-09T00:46:18.514Z,7.59
2022-10-09T00:48:46.883Z,7.53
2022-10-09T00:51:14.667Z,7.54
2022-10-09T00:53:42.653Z,7.49
2022-10-09T00:56:11.815Z,7.50
2022-10-09T00:58:39.418Z,7.46
2022-10-09T01:01:07.321Z,7.51
2022-10-09T01:03:35.034Z,7.56
2022-10-09T01:06:12.892Z,7.52
2022-10-09T01:08:48.853Z,7.50
2022-10-09T01:11:27.552Z,7.64
2022-10-09T01:14:02.201Z,7.53
2022-10-09T01:16:35.306Z,7.51
2022-10-09T01:19:12.208Z,7.42
2022-10-09T01:21:44.123Z,7.49
2022-10-09T01:24:25.740Z,7.42
2022-10-09T01:27:03.436Z,7.40
2022-10-09T01:29:36.969Z,7.27
2022-10-09T01:32:06.597Z,7.32
2022-10-09T01:34:34.722Z,7.27
2022-10-09T01:37:03.260Z,7.29
2022-10-09T01:39:33.185Z,7.36
2022-10-09T01:42:03.009Z,7.40
2022-10-09T01:44:33.297Z,7.28
2022-10-09T01:47:02.013Z,7.23
2022-10-09T01:49:40.245Z,7.22
2022-10-09T01:52:19.349Z,7.22
2022-10-09T01:54:55.257Z,7.30
2022-10-09T01:57:30.265Z,7.28
2022-10-09T02:00:03.164Z,7.24
2022-10-09T02:02:31.059Z,7.16
2022-10-09T02:04:59.643Z,7.15
2022-10-09T02:07:28.202Z,7.05
2022-10-09T02:09:57.074Z,6.93
2022-10-09T02:12:28.901Z,6.87
2022-10-09T02:14:57.003Z,6.85
2022-10-09T02:17:30.502Z,6.79
2022-10-09T02:20:04.512Z,6.86
2022-10-09T02:22:34.351Z,6.83
2022-10-09T02:25:05.149Z,6.80
2022-10-09T02:27:35.074Z,6.85
2022-10-09T02:30:03.544Z,6.84
2022-10-09T02:32:31.189Z,6.81
2022-10-09T02:34:59.085Z,6.86
2022-10-09T02:37:26.817Z,6.79
2022-10-09T02:39:54.556Z,6.72
2022-10-09T02:42:22.269Z,6.68
2022-10-09T02:44:51.310Z,6.64
2022-10-09T02:47:19.054Z,6.64
2022-10-09T02:49:46.688Z,6.66
2022-10-09T02:52:16.717Z,6.75
2022-10-09T02:54:44.572Z,6.78
2022-10-09T02:57:12.228Z,6.72
2022-10-09T02:59:39.998Z,6.71
2022-10-09T03:02:09.211Z,6.76
2022-10-09T03:04:40.474Z,6.73
2022-10-09T03:07:08.099Z,6.66
2022-10-09T03:09:35.797Z,6.71
2022-10-09T03:12:03.501Z,6.68
2022-10-09T03:14:31.099Z,6.69
2022-10-09T03:16:59.290Z,6.58
2022-10-09T03:19:28.215Z,6.48
2022-10-09T03:21:55.808Z,6.48
2022-10-09T03:24:23.743Z,6.41
2022-10-09T03:26:51.662Z,6.43
2022-10-09T03:29:19.317Z,6.43
2022-10-09T03:31:52.233Z,6.56
2022-10-09T03:34:20.769Z,6.42
2022-10-09T03:36:50.211Z,6.50
2022-10-09T03:39:17.812Z,6.44
2022-10-09T03:41:45.489Z,6.51
2022-10-09T03:44:13.329Z,6.42
2022-10-09T03:46:41.123Z,6.40
2022-10-09T03:49:09.008Z,6.32
2022-10-09T03:51:36.683Z,6.34
2022-10-09T03:54:06.296Z,6.36
2022-10-09T03:56:33.961Z,6.37
2022-10-09T03:59:01.537Z,6.39
2022-10-09T04:01:29.402Z,6.43
2022-10-09T04:03:57.168Z,6.44
2022-10-09T04:06:24.814Z,6.31
2022-10-09T04:08:52.458Z,6.31
2022-10-09T04:11:21.500Z,6.30
2022-10-09T04:13:49.354Z,6.24
2022-10-09T04:16:17.033Z,6.26
2022-10-09T04:18:45.647Z,6.26
2022-10-09T04:21:13.509Z,6.19
2022-10-09T04:23:41.331Z,6.16
2022-10-09T04:26:09.119Z,6.20
2022-10-09T04:28:38.151Z,6.01
2022-10-09T04:31:06.441Z,5.95
2022-10-09T04:33:34.118Z,5.85
2022-10-09T04:36:02.119Z,5.80
2022-10-09T04:38:32.058Z,5.75
2022-10-09T04:41:01.123Z,5.71
2022-10-09T04:43:29.839Z,5.69
2022-10-09T04:45:59.205Z,5.70
2022-10-09T04:48:27.049Z,5.75
2022-10-09T04:50:54.679Z,5.69
2022-10-09T04:53:22.296Z,5.65
2022-10-09T04:55:49.959Z,5.70
2022-10-09T04:58:17.620Z,5.69
2022-10-09T05:00:47.025Z,5.66
2022-10-09T05:03:16.178Z,5.68
2022-10-09T05:05:43.887Z,5.66
2022-10-09T05:08:11.564Z,5.64
2022-10-09T05:10:39.479Z,5.68
2022-10-09T05:13:07.384Z,5.70
2022-10-09T05:15:38.077Z,5.71
2022-10-09T05:18:05.883Z,5.63
2022-10-09T05:20:35.104Z,5.62
2022-10-09T05:23:02.759Z,5.58
2022-10-09T05:25:30.465Z,5.54
2022-10-09T05:27:58.285Z,5.49
2022-10-09T05:30:25.905Z,5.54
2022-10-09T05:32:53.538Z,5.50
2022-10-09T05:35:21.146Z,5.49
2022-10-09T05:37:50.095Z,5.50
2022-10-09T05:40:29.105Z,5.49
2022-10-09T05:42:57.041Z,5.55
2022-10-09T05:45:24.671Z,5.65
2022-10-09T05:47:52.385Z,5.74
2022-10-09T05:50:20.106Z,5.89
2022-10-09T05:52:50.385Z,6.18
2022-10-09T05:55:18.352Z,6.72
2022-10-09T05:57:47.268Z,7.18
2022-10-09T06:00:15.630Z,7.60
2022-10-09T06:02:44.231Z,8.13
2022-10-09T06:05:12.062Z,8.56
2022-10-09T06:07:39.691Z,8.71
2022-10-09T06:10:09.650Z,9.33
2022-10-09T06:12:37.282Z,9.35
2022-10-09T06:15:05.401Z,9.72
2022-10-09T06:17:33.801Z,10.23
2022-10-09T06:20:01.533Z,10.43
2022-10-09T06:22:29.197Z,10.88
2022-10-09T06:24:56.832Z,11.42
2022-10-09T06:27:26.035Z,12.15
2022-10-09T06:29:55.990Z,12.20
2022-10-09T06:32:23.593Z,11.46
2022-10-09T06:34:52.070Z,12.10
2022-10-09T06:37:19.990Z,11.70
2022-10-09T06:39:47.680Z,12.75
2022-10-09T06:42:16.628Z,13.93
2022-10-09T06:44:45.735Z,14.36
2022-10-09T06:47:13.563Z,14.53
2022-10-09T06:49:41.205Z,13.31
2022-10-09T06:52:08.873Z,12.50
2022-10-09T06:54:36.756Z,13.19
2022-10-09T06:57:04.620Z,13.82
2022-10-09T06:59:32.197Z,14.02
2022-10-09T07:02:01.612Z,13.60
2022-10-09T07:04:29.368Z,14.25
2022-10-09T07:06:57.075Z,14.44
2022-10-09T07:09:24.652Z,13.93
2022-10-09T07:11:52.277Z,14.49
2022-10-09T07:14:19.992Z,14.45
2022-10-09T07:16:49.598Z,14.96
2022-10-09T07:19:19.724Z,15.46
2022-10-09T07:21:48.916Z,15.98
2022-10-09T07:24:17.611Z,14.57
2022-10-09T07:26:47.785Z,14.46
2022-10-09T07:29:17.003Z,15.27
2022-10-09T07:31:44.885Z,15.71
2022-10-09T07:34:12.713Z,15.23
2022-10-09T07:36:41.675Z,15.36
2022-10-09T07:39:09.772Z,15.39
2022-10-09T07:41:37.952Z,14.51
2022-10-09T07:44:05.743Z,13.89
2022-10-09T07:46:34.316Z,15.33
2022-10-09T07:49:02.379Z,15.37
2022-10-09T07:51:30.895Z,15.79
2022-10-09T07:54:01.803Z,15.80
2022-10-09T07:56:31.436Z,15.56
2022-10-09T07:59:00.899Z,15.99
2022-10-09T08:01:29.748Z,16.19
2022-10-09T08:03:58.299Z,15.83
2022-10-09T08:06:26.271Z,15.70
2022-10-09T08:08:55.861Z,14.01
2022-10-09T08:11:27.196Z,15.43
2022-10-09T08:13:55.174Z,14.31
2022-10-09T08:16:24.272Z,14.32
2022-10-09T08:18:55.983Z,15.00
2022-10-09T08:21:23.812Z,15.52
2022-10-09T08:23:54.315Z,14.98
2022-10-09T08:26:25.643Z,14.91
2022-10-09T08:28:54.788Z,15.43
2022-10-09T08:31:23.547Z,15.73
2022-10-09T08:33:53.458Z,15.78
2022-10-09T08:36:21.147Z,15.43
2022-10-09T08:38:49.873Z,13.91
2022-10-09T08:41:40.659Z,13.94
2022-10-09T08:44:14.856Z,13.80
2022-10-09T08:46:52.486Z,13.73
2022-10-09T08:49:27.014Z,13.12
2022-10-09T08:51:57.881Z,12.34
2022-10-09T08:54:34.206Z,12.72
2022-10-09T08:57:06.313Z,12.67
2022-10-09T08:59:35.036Z,12.77
2022-10-09T09:02:16.835Z,12.80
2022-10-09T09:04:56.351Z,12.94
2022-10-09T09:07:35.483Z,12.83
2022-10-09T09:10:11.686Z,12.79
2022-10-09T09:12:49.881Z,12.83
2022-10-09T09:15:29.412Z,12.56
2022-10-09T09:18:10.832Z,13.03
2022-10-09T09:20:48.513Z,13.21
2022-10-09T09:23:17.367Z,13.12
2022-10-09T09:25:46.707Z,12.80
2022-10-09T09:28:21.186Z,12.69
2022-10-09T09:30:52.628Z,13.07
2022-10-09T09:33:25.646Z,13.25
2022-10-09T09:36:05.395Z,13.06
2022-10-09T09:38:33.252Z,13.49
2022-10-09T09:41:00.989Z,13.33
2022-10-09T09:43:29.943Z,13.48
2022-10-09T09:45:59.837Z,13.14
2022-10-09T09:48:34.484Z,13.19
2022-10-09T09:51:26.959Z,13.66
2022-10-09T09:53:55.205Z,13.76
2022-10-09T09:56:53.362Z,13.80
2022-10-09T09:59:36.384Z,13.53
2022-10-09T10:02:13.516Z,13.41
2022-10-09T10:04:52.530Z,13.30
2022-10-09T10:07:31.743Z,13.47
2022-10-09T10:10:06.875Z,13.85
2022-10-09T10:12:34.703Z,14.07
2022-10-09T10:15:03.730Z,14.06
2022-10-09T10:17:33.455Z,14.32
2022-10-09T10:20:06.932Z,14.63
2022-10-09T10:22:35.049Z,14.21
2022-10-09T10:25:03.035Z,14.39
2022-10-09T10:27:36.395Z,14.48
2022-10-09T10:30:08.138Z,14.52
2022-10-09T10:32:39.790Z,14.61
2022-10-09T10:35:14.694Z,14.49
2022-10-09T10:37:47.477Z,14.80
2022-10-09T10:40:21.101Z,14.85
2022-10-09T10:43:00.033Z,14.68
2022-10-09T10:45:35.373Z,14.66
2022-10-09T10:48:05.520Z,14.77
2022-10-09T10:50:39.417Z,14.70
2022-10-09T10:53:16.313Z,14.88
2022-10-09T10:55:53.001Z,14.96
2022-10-09T10:58:27.388Z,15.22
2022-10-09T11:01:12.920Z,15.49
2022-10-09T11:04:02.503Z,15.71
2022-10-09T11:06:39.083Z,15.51
2022-10-09T11:09:16.184Z,15.57
2022-10-09T11:11:52.874Z,15.73
2022-10-09T11:14:36.592Z,15.64
2022-10-09T11:17:17.707Z,15.50
2022-10-09T11:20:03.089Z,15.58
2022-10-09T11:22:43.308Z,15.58
2022-10-09T11:25:27.972Z,15.55
2022-10-09T11:27:59.860Z,15.77
2022-10-09T11:30:31.459Z,15.38
2022-10-09T11:33:07.460Z,15.47
2022-10-09T11:35:41.539Z,15.64
2022-10-09T11:38:34.315Z,15.79
2022-10-09T11:41:05.109Z,15.51
2022-10-09T11:44:05.968Z,15.65
2022-10-09T11:46:45.500Z,15.71
2022-10-09T11:49:23.878Z,15.73
2022-10-09T11:51:58.137Z,15.33
2022-10-09T11:54:27.444Z,15.27
2022-10-09T11:56:57.853Z,15.25
2022-10-09T11:59:30.281Z,15.52
2022-10-09T12:02:02.109Z,15.62
2022-10-09T12:07:34.099Z,15.26
2022-10-09T12:10:05.816Z,15.51
2022-10-09T12:12:34.693Z,15.64
2022-10-09T12:15:24.190Z,15.46
2022-10-09T12:17:52.068Z,15.76
2022-10-09T12:20:24.956Z,15.84
2022-10-09T12:23:21.706Z,15.98
2022-10-09T12:25:46.736Z,15.90
2022-10-09T12:28:26.902Z,15.85
2022-10-09T12:30:56.277Z,15.90
2022-10-09T12:33:27.458Z,16.12
2022-10-09T12:36:05.903Z,16.16
2022-10-09T12:38:33.942Z,16.04
2022-10-09T12:41:06.030Z,16.08
2022-10-09T12:43:36.274Z,16.07
2022-10-09T12:46:04.376Z,15.99
2022-10-09T12:48:37.896Z,16.10
2022-10-09T12:51:16.206Z,15.78
2022-10-09T12:53:48.997Z,16.13
2022-10-09T12:56:21.902Z,16.14
2022-10-09T12:58:50.823Z,16.37
2022-10-09T13:01:20.919Z,16.32
2022-10-09T13:03:55.513Z,16.22
2022-10-09T13:06:27.212Z,16.38
2022-10-09T13:08:57.737Z,16.42
2022-10-09T13:11:32.544Z,16.27
2022-10-09T13:14:00.744Z,16.22
2022-10-09T13:16:39.533Z,16.49
2022-10-09T13:19:23.352Z,16.34
2022-10-09T13:22:17.141Z,16.52
2022-10-09T13:24:45.140Z,16.45
2022-10-09T13:27:14.505Z,16.48
2022-10-09T13:29:43.089Z,16.40
2022-10-09T13:32:13.308Z,16.35
2022-10-09T13:34:41.124Z,16.58
2022-10-09T13:37:11.538Z,16.24
2022-10-09T13:39:39.260Z,16.40
2022-10-09T13:42:07.487Z,16.67
2022-10-09T13:44:35.120Z,16.57
2022-10-09T13:47:02.869Z,16.48
2022-10-09T13:49:30.495Z,16.31
2022-10-09T13:51:58.093Z,16.28
2022-10-09T13:54:29.639Z,16.34
2022-10-09T13:56:58.692Z,16.36
2022-10-09T13:59:26.641Z,16.51
2022-10-09T14:01:57.268Z,16.34
2022-10-09T14:04:25.060Z,16.41
2022-10-09T14:06:52.792Z,16.64
2022-10-09T14:09:20.700Z,16.59
2022-10-09T14:11:49.724Z,16.64
2022-10-09T14:14:17.439Z,16.74
2022-10-09T14:16:45.096Z,16.84
2022-10-09T14:19:12.717Z,16.64
2022-10-09T14:21:40.707Z,16.33
2022-10-09T14:24:10.013Z,16.44
2022-10-09T14:26:38.982Z,16.35
2022-10-09T14:29:07.879Z,16.32
2022-10-09T14:31:35.606Z,16.25
2022-10-09T14:34:03.545Z,16.44
2022-10-09T14:36:31.584Z,16.32
2022-10-09T14:39:00.817Z,16.45
2022-10-09T14:41:30.614Z,16.27
2022-10-09T14:44:00.884Z,16.32
2022-10-09T14:46:33.756Z,16.51
2022-10-09T14:49:07.042Z,16.44
2022-10-09T14:51:38.444Z,16.46
2022-10-09T14:54:07.002Z,16.37
2022-10-09T14:56:35.578Z,16.33
2022-10-09T14:59:03.568Z,16.42
2022-10-09T15:01:33.354Z,16.29
2022-10-09T15:04:01.628Z,16.32
2022-10-09T15:06:29.800Z,16.20
2022-10-09T15:09:03.197Z,16.15
2022-10-09T15:11:33.509Z,16.19
2022-10-09T15:14:01.121Z,16.07
2022-10-09T15:16:28.938Z,16.11
2022-10-09T15:18:58.306Z,16.06
2022-10-09T15:21:27.694Z,16.02
2022-10-09T15:23:56.448Z,15.98
2022-10-09T15:26:24.803Z,15.94
2022-10-09T15:28:52.463Z,16.01
2022-10-09T15:31:23.986Z,16.05
2022-10-09T15:33:52.184Z,16.06
2022-10-09T15:36:21.460Z,16.02
2022-10-09T15:38:49.471Z,15.98
2022-10-09T15:41:24.059Z,15.96
2022-10-09T15:43:55.295Z,15.94
2022-10-09T15:46:23.090Z,15.92
2022-10-09T15:48:51.671Z,15.88
2022-10-09T15:51:27.154Z,15.85
2022-10-09T15:53:56.321Z,15.81
2022-10-09T15:56:33.813Z,15.79
2022-10-09T15:59:04.012Z,15.68
2022-10-09T16:01:33.689Z,15.72
2022-10-09T16:04:05.801Z,15.55
2022-10-09T16:06:39.166Z,15.48
2022-10-09T16:09:13.722Z,15.45
2022-10-09T16:11:49.030Z,15.47
2022-10-09T16:14:22.730Z,15.41
2022-10-09T16:16:51.966Z,15.36
2022-10-09T16:19:20.228Z,15.31
2022-10-09T16:22:00.513Z,15.25
2022-10-09T16:24:28.650Z,15.17
2022-10-09T16:26:56.564Z,15.17
2022-10-09T16:29:36.216Z,15.16
2022-10-09T16:32:04.669Z,15.08
2022-10-09T16:34:35.806Z,14.93
2022-10-09T16:37:07.877Z,14.95
2022-10-09T16:39:38.542Z,14.92
2022-10-09T16:42:09.564Z,14.86
2022-10-09T16:44:41.366Z,14.84
2022-10-09T16:47:15.614Z,14.80
2022-10-09T16:49:53.915Z,14.83
2022-10-09T16:52:23.678Z,14.71
2022-10-09T16:54:54.942Z,14.61
2022-10-09T16:57:27.553Z,14.66
2022-10-09T16:59:55.315Z,14.63
2022-10-09T17:02:23.093Z,14.63
2022-10-09T17:04:50.890Z,14.58
2022-10-09T17:07:22.963Z,14.55
2022-10-09T17:09:53.607Z,14.49
2022-10-09T17:12:24.073Z,14.42
2022-10-09T17:14:51.942Z,14.40
2022-10-09T17:17:19.629Z,14.33
2022-10-09T17:19:47.972Z,14.18
2022-10-09T17:22:15.965Z,13.98
2022-10-09T17:24:44.187Z,13.77
2022-10-09T17:27:13.342Z,13.57
2022-10-09T17:29:41.763Z,13.45
2022-10-09T17:32:09.779Z,13.47
2022-10-09T17:34:45.788Z,13.50
2022-10-09T17:37:14.655Z,13.56
2022-10-09T17:39:45.565Z,13.37
2022-10-09T17:42:16.623Z,13.41
2022-10-09T17:44:46.970Z,13.38
2022-10-09T17:47:16.123Z,13.28
2022-10-09T17:49:45.630Z,13.14
2022-10-09T17:52:13.994Z,13.08
2022-10-09T17:54:42.377Z,13.00
2022-10-09T17:57:15.011Z,12.94
2022-10-09T17:59:46.515Z,12.91
2022-10-09T18:02:33.963Z,12.80
2022-10-09T18:05:02.204Z,12.75
2022-10-09T18:07:29.979Z,12.65
2022-10-09T18:10:09.329Z,12.66
2022-10-09T18:12:41.146Z,12.60
2022-10-09T18:15:16.785Z,12.65
2022-10-09T18:17:51.770Z,12.58
2022-10-09T18:20:19.921Z,12.70
2022-10-09T18:22:47.720Z,12.60
2022-10-09T18:25:16.437Z,12.46
2022-10-09T18:27:44.118Z,12.33
2022-10-09T18:30:16.827Z,12.26
2022-10-09T18:36:42.289Z,12.12
2022-10-09T18:39:14.574Z,12.14
2022-10-09T18:41:43.064Z,12.11
2022-10-09T18:44:17.380Z,12.12
2022-10-09T18:46:49.282Z,12.14
2022-10-09T18:49:20.086Z,12.11
2022-10-09T18:51:49.728Z,12.05
2022-10-09T18:54:20.433Z,12.02
2022-10-09T18:56:48.539Z,12.02
2022-10-09T18:59:19.299Z,12.06
2022-10-09T19:01:48.784Z,12.00
2022-10-09T19:04:16.738Z,11.96
2022-10-09T19:06:44.428Z,11.88
2022-10-09T19:09:12.247Z,11.78
2022-10-09T19:11:40.211Z,11.73
2022-10-09T19:14:07.803Z,11.64
2022-10-09T19:16:36.212Z,11.49
2022-10-09T19:19:05.396Z,11.44
2022-10-09T19:21:33.167Z,11.50
2022-10-09T19:24:03.388Z,11.52
2022-10-09T19:26:32.732Z,11.51
2022-10-09T19:29:00.992Z,11.56
2022-10-09T19:31:28.606Z,11.42
2022-10-09T19:33:56.279Z,11.39
2022-10-09T19:36:26.668Z,11.34
2022-10-09T19:38:54.839Z,11.21
2022-10-09T19:41:22.469Z,11.16
2022-10-09T19:43:50.088Z,11.15
2022-10-09T19:46:20.733Z,11.22
2022-10-09T19:48:48.547Z,11.35
2022-10-09T19:51:18.282Z,11.38
2022-10-09T19:53:51.990Z,11.24
2022-10-09T19:56:21.858Z,11.27
2022-10-09T19:58:52.480Z,11.24
2022-10-09T20:01:21.986Z,11.28
2022-10-09T20:03:54.490Z,11.33
2022-10-09T20:06:25.576Z,11.34
2022-10-09T20:08:57.473Z,11.37
2022-10-09T20:11:26.521Z,11.30
2022-10-09T20:13:56.650Z,11.27
2022-10-09T20:16:25.681Z,11.19
2022-10-09T20:18:55.161Z,11.42
2022-10-09T20:21:23.838Z,11.54
2022-10-09T20:23:51.720Z,11.48
2022-10-09T20:26:22.131Z,11.40
2022-10-09T20:28:50.666Z,11.42
2022-10-09T20:31:21.024Z,11.26
2022-10-09T20:33:50.184Z,11.11
2022-10-09T20:36:24.333Z,10.96
2022-10-09T20:38:53.496Z,10.89
2022-10-09T20:41:22.780Z,10.91
2022-10-09T20:43:52.029Z,10.87
2022-10-09T20:46:21.182Z,10.83
2022-10-09T20:48:49.653Z,10.80
2022-10-09T20:51:17.548Z,10.69
2022-10-09T20:53:45.211Z,10.69
2022-10-09T20:56:15.134Z,10.73
2022-10-09T20:58:47.037Z,10.77
2022-10-09T21:01:16.674Z,10.71
2022-10-09T21:03:45.045Z,10.59
2022-10-09T21:06:15.434Z,10.57
2022-10-09T21:08:43.163Z,10.50
2022-10-09T21:11:12.935Z,10.43
2022-10-09T21:13:41.663Z,10.38
2022-10-09T21:16:12.910Z,10.41
2022-10-09T21:18:42.574Z,10.48
2022-10-09T21:21:12.505Z,10.42
2022-10-09T21:23:40.769Z,10.39
2022-10-09T21:26:12.584Z,10.28
2022-10-09T21:28:40.264Z,10.31
2022-10-09T21:31:11.221Z,10.31
2022-10-09T21:33:39.034Z,10.18
2022-10-09T21:36:11.228Z,10.17
2022-10-09T21:38:39.084Z,10.12
2022-10-09T21:41:06.763Z,10.07
2022-10-09T21:43:34.445Z,10.11
2022-10-09T21:46:02.192Z,10.09
2022-10-09T21:48:31.408Z,10.10
2022-10-09T21:50:59.013Z,10.05
2022-10-09T21:53:26.815Z,9.99
2022-10-09T21:55:54.431Z,10.03
2022-10-09T21:58:24.237Z,9.92
2022-10-09T22:00:57.096Z,9.93
2022-10-09T22:03:25.656Z,9.96
2022-10-09T22:05:54.941Z,9.90
2022-10-09T22:08:23.137Z,9.91
2022-10-09T22:10:51.360Z,9.91
2022-10-09T22:13:19.714Z,9.80
2022-10-09T22:15:50.948Z,9.68
2022-10-09T22:18:19.125Z,9.65
2022-10-09T22:20:49.348Z,9.57
2022-10-09T22:23:19.365Z,9.51
2022-10-09T22:25:57.088Z,9.58
2022-10-09T22:28:24.987Z,9.52
2022-10-09T22:31:01.928Z,9.63
2022-10-09T22:33:29.818Z,9.61
2022-10-09T22:36:06.995Z,9.64
2022-10-09T22:38:37.126Z,9.56
2022-10-09T22:41:06.809Z,9.50
2022-10-09T22:43:34.728Z,9.45
2022-10-09T22:46:05.917Z,9.41
2022-10-09T22:48:35.107Z,9.41
2022-10-09T22:51:04.589Z,9.41
2022-10-09T22:53:32.376Z,9.46
2022-10-09T22:56:01.609Z,9.35
2022-10-09T22:58:29.381Z,9.41
2022-10-09T23:00:57.252Z,9.40
2022-10-09T23:03:24.933Z,9.45
2022-10-09T23:05:52.616Z,9.48
2022-10-09T23:08:20.132Z,9.47
2022-10-09T23:10:47.745Z,9.49
2022-10-09T23:13:16.705Z,9.57
2022-10-09T23:15:44.494Z,9.42
2022-10-09T23:18:12.145Z,9.45
2022-10-09T23:20:39.800Z,9.41
2022-10-09T23:23:07.746Z,9.33
2022-10-09T23:25:35.432Z,9.27
2022-10-09T23:28:03.144Z,9.26
2022-10-09T23:30:32.846Z,9.21
2022-10-09T23:33:00.419Z,9.21
2022-10-09T23:35:28.501Z,9.20
2022-10-09T23:37:56.439Z,9.27
2022-10-09T23:40:24.164Z,9.39
2022-10-09T23:42:52.319Z,9.33
2022-10-09T23:45:20.242Z,9.29
2022-10-09T23:47:49.151Z,9.36
2022-10-09T23:50:16.918Z,9.27
2022-10-09T23:52:44.617Z,9.30
2022-10-09T23:55:12.284Z,9.27
2022-10-09T23:57:40.001Z,9.28
